sensor_id;sensor_type;location;lat;lon;timestamp;temperature;humidity
27707;DHT22;36332;51.384;0.040;2022-12-04T00:01:21;6.30;99.90
27707;DHT22;36332;51.384;0.040;2022-12-04T00:06:23;6.20;99.90
27707;DHT22;36332;51.384;0.040;2022-12-04T00:11:23;6.30;99.90
27707;DHT22;36332;51.384;0.040;2022-12-04T00:13:52;6.30;99.90
27707;DHT22;36332;51.384;0.040;2022-12-04T00:16:22;6.30;99.90
27707;DHT22;36332;51.384;0.040;2022-12-04T00:18:51;6.30;99.90
27707;DHT22;36332;51.384;0.040;2022-12-04T00:21:20;6.30;99.90
27707;DHT22;36332;51.384;0.040;2022-12-04T00:23:49;6.30;99.90
27707;DHT22;36332;51.384;0.040;2022-12-04T00:26:21;6.30;99.90
27707;DHT22;36332;51.384;0.040;2022-12-04T00:28:49;6.30;99.90
27707;DHT22;36332;51.384;0.040;2022-12-04T00:31:20;6.30;99.90
27707;DHT22;36332;51.384;0.040;2022-12-04T00:33:49;6.30;99.90
27707;DHT22;36332;51.384;0.040;2022-12-04T00:36:20;6.30;99.90
27707;DHT22;36332;51.384;0.040;2022-12-04T00:38:48;7.20;99.90
27707;DHT22;36332;51.384;0.040;2022-12-04T00:41:18;6.30;99.90
27707;DHT22;36332;51.384;0.040;2022-12-04T00:43:46;6.30;99.90
27707;DHT22;36332;51.384;0.040;2022-12-04T00:46:15;6.30;99.90
27707;DHT22;36332;51.384;0.040;2022-12-04T00:51:16;6.30;99.90
27707;DHT22;36332;51.384;0.040;2022-12-04T00:56:17;6.30;99.90
27707;DHT22;36332;51.384;0.040;2022-12-04T00:58:46;6.20;99.90
27707;DHT22;36332;51.384;0.040;2022-12-04T01:01:17;6.20;99.90
27707;DHT22;36332;51.384;0.040;2022-12-04T01:03:46;6.20;99.90
27707;DHT22;36332;51.384;0.040;2022-12-04T01:06:24;6.20;99.90
27707;DHT22;36332;51.384;0.040;2022-12-04T01:08:55;6.30;99.90
27707;DHT22;36332;51.384;0.040;2022-12-04T01:11:25;5.60;99.90
27707;DHT22;36332;51.384;0.040;2022-12-04T01:13:55;6.30;99.90
27707;DHT22;36332;51.384;0.040;2022-12-04T01:16:30;6.30;99.90
27707;DHT22;36332;51.384;0.040;2022-12-04T01:19:00;6.30;99.90
27707;DHT22;36332;51.384;0.040;2022-12-04T01:21:28;6.30;99.90
27707;DHT22;36332;51.384;0.040;2022-12-04T01:23:56;6.20;99.90
27707;DHT22;36332;51.384;0.040;2022-12-04T01:36:23;6.10;99.90
27707;DHT22;36332;51.384;0.040;2022-12-04T01:38:53;6.30;99.90
27707;DHT22;36332;51.384;0.040;2022-12-04T01:41:27;6.20;99.90
27707;DHT22;36332;51.384;0.040;2022-12-04T01:44:17;6.20;99.90
27707;DHT22;36332;51.384;0.040;2022-12-04T01:46:54;6.20;99.90
27707;DHT22;36332;51.384;0.040;2022-12-04T01:51:58;6.10;99.90
27707;DHT22;36332;51.384;0.040;2022-12-04T01:54:33;6.20;99.90
27707;DHT22;36332;51.384;0.040;2022-12-04T01:57:07;6.20;99.90
27707;DHT22;36332;51.384;0.040;2022-12-04T01:59:44;6.20;99.90
27707;DHT22;36332;51.384;0.040;2022-12-04T02:02:15;6.20;99.90
27707;DHT22;36332;51.384;0.040;2022-12-04T02:15:09;6.20;99.90
27707;DHT22;36332;51.384;0.040;2022-12-04T02:23:45;6.10;99.90
27707;DHT22;36332;51.384;0.040;2022-12-04T02:29:36;6.20;99.90
27707;DHT22;36332;51.384;0.040;2022-12-04T02:32:22;6.20;99.90
27707;DHT22;36332;51.384;0.040;2022-12-04T02:35:03;6.10;99.90
27707;DHT22;36332;51.384;0.040;2022-12-04T02:37:39;6.20;99.90
27707;DHT22;36332;51.384;0.040;2022-12-04T02:40:24;6.10;99.90
27707;DHT22;36332;51.384;0.040;2022-12-04T02:42:59;6.20;99.90
27707;DHT22;36332;51.384;0.040;2022-12-04T02:45:44;6.20;99.90
27707;DHT22;36332;51.384;0.040;2022-12-04T02:48:17;6.20;99.90
27707;DHT22;36332;51.384;0.040;2022-12-04T02:50:50;6.20;99.90
27707;DHT22;36332;51.384;0.040;2022-12-04T02:53:24;6.20;99.90
27707;DHT22;36332;51.384;0.040;2022-12-04T02:56:00;6.20;99.90
27707;DHT22;36332;51.384;0.040;2022-12-04T03:01:02;6.20;99.90
27707;DHT22;36332;51.384;0.040;2022-12-04T03:04:19;6.20;99.90
27707;DHT22;36332;51.384;0.040;2022-12-04T03:06:55;6.00;99.90
27707;DHT22;36332;51.384;0.040;2022-12-04T03:15:10;6.10;99.90
27707;DHT22;36332;51.384;0.040;2022-12-04T03:17:56;6.00;99.90
27707;DHT22;36332;51.384;0.040;2022-12-04T03:22:58;6.00;99.90
27707;DHT22;36332;51.384;0.040;2022-12-04T03:25:40;6.00;99.90
27707;DHT22;36332;51.384;0.040;2022-12-04T03:28:19;6.00;99.90
27707;DHT22;36332;51.384;0.040;2022-12-04T03:30:56;6.00;99.90
27707;DHT22;36332;51.384;0.040;2022-12-04T03:33:39;6.00;99.90
27707;DHT22;36332;51.384;0.040;2022-12-04T03:38:48;5.90;99.90
27707;DHT22;36332;51.384;0.040;2022-12-04T03:41:28;6.00;99.90
27707;DHT22;36332;51.384;0.040;2022-12-04T03:44:10;5.90;99.90
27707;DHT22;36332;51.384;0.040;2022-12-04T03:46:51;5.90;99.90
27707;DHT22;36332;51.384;0.040;2022-12-04T03:49:47;5.80;99.90
27707;DHT22;36332;51.384;0.040;2022-12-04T03:55:20;5.90;99.90
27707;DHT22;36332;51.384;0.040;2022-12-04T03:57:51;5.90;99.90
27707;DHT22;36332;51.384;0.040;2022-12-04T04:03:08;6.30;99.90
27707;DHT22;36332;51.384;0.040;2022-12-04T04:05:43;5.80;99.90
27707;DHT22;36332;51.384;0.040;2022-12-04T04:08:18;5.80;99.90
27707;DHT22;36332;51.384;0.040;2022-12-04T04:10:56;5.80;99.90
27707;DHT22;36332;51.384;0.040;2022-12-04T04:13:43;5.90;99.90
27707;DHT22;36332;51.384;0.040;2022-12-04T04:16:32;5.80;99.90
27707;DHT22;36332;51.384;0.040;2022-12-04T04:19:24;5.90;99.90
27707;DHT22;36332;51.384;0.040;2022-12-04T04:22:14;5.70;99.90
27707;DHT22;36332;51.384;0.040;2022-12-04T04:25:11;5.90;99.90
27707;DHT22;36332;51.384;0.040;2022-12-04T04:32:47;5.90;99.90
27707;DHT22;36332;51.384;0.040;2022-12-04T04:35:27;5.90;99.90
27707;DHT22;36332;51.384;0.040;2022-12-04T04:38:21;5.90;99.90
27707;DHT22;36332;51.384;0.040;2022-12-04T04:40:58;5.90;99.90
27707;DHT22;36332;51.384;0.040;2022-12-04T04:43:39;6.00;99.90
27707;DHT22;36332;51.384;0.040;2022-12-04T04:46:31;6.00;99.90
27707;DHT22;36332;51.384;0.040;2022-12-04T04:49:02;6.00;99.90
27707;DHT22;36332;51.384;0.040;2022-12-04T04:51:33;6.00;99.90
27707;DHT22;36332;51.384;0.040;2022-12-04T04:54:07;6.10;99.90
27707;DHT22;36332;51.384;0.040;2022-12-04T04:56:44;6.00;99.90
27707;DHT22;36332;51.384;0.040;2022-12-04T04:59:13;6.10;99.90
27707;DHT22;36332;51.384;0.040;2022-12-04T05:01:43;6.10;99.90
27707;DHT22;36332;51.384;0.040;2022-12-04T05:04:12;6.10;99.90
27707;DHT22;36332;51.384;0.040;2022-12-04T05:09:08;6.00;99.90
27707;DHT22;36332;51.384;0.040;2022-12-04T05:36:39;6.00;99.90
27707;DHT22;36332;51.384;0.040;2022-12-04T05:49:01;6.10;99.90
27707;DHT22;36332;51.384;0.040;2022-12-04T05:56:27;6.10;99.90
27707;DHT22;36332;51.384;0.040;2022-12-04T06:06:21;6.10;99.90
27707;DHT22;36332;51.384;0.040;2022-12-04T06:08:51;6.10;99.90
27707;DHT22;36332;51.384;0.040;2022-12-04T06:11:22;6.10;99.90
27707;DHT22;36332;51.384;0.040;2022-12-04T06:16:24;6.10;99.90
27707;DHT22;36332;51.384;0.040;2022-12-04T06:18:56;6.10;99.90
27707;DHT22;36332;51.384;0.040;2022-12-04T06:21:27;6.10;99.90
27707;DHT22;36332;51.384;0.040;2022-12-04T06:23:55;6.00;99.90
27707;DHT22;36332;51.384;0.040;2022-12-04T06:26:24;6.00;99.90
27707;DHT22;36332;51.384;0.040;2022-12-04T06:28:57;6.00;99.90
27707;DHT22;36332;51.384;0.040;2022-12-04T06:31:26;6.00;99.90
27707;DHT22;36332;51.384;0.040;2022-12-04T06:33:55;5.90;99.90
27707;DHT22;36332;51.384;0.040;2022-12-04T06:38:54;6.00;99.90
27707;DHT22;36332;51.384;0.040;2022-12-04T06:41:23;6.00;99.90
27707;DHT22;36332;51.384;0.040;2022-12-04T06:46:25;6.00;99.90
27707;DHT22;36332;51.384;0.040;2022-12-04T06:48:55;6.00;99.90
27707;DHT22;36332;51.384;0.040;2022-12-04T06:51:32;6.00;99.90
27707;DHT22;36332;51.384;0.040;2022-12-04T06:56:30;5.90;99.90
27707;DHT22;36332;51.384;0.040;2022-12-04T06:59:00;5.80;99.90
27707;DHT22;36332;51.384;0.040;2022-12-04T07:01:30;5.90;99.90
27707;DHT22;36332;51.384;0.040;2022-12-04T07:04:00;5.90;99.90
27707;DHT22;36332;51.384;0.040;2022-12-04T07:06:32;5.90;99.90
27707;DHT22;36332;51.384;0.040;2022-12-04T07:09:09;5.90;99.90
27707;DHT22;36332;51.384;0.040;2022-12-04T07:11:39;5.90;99.90
27707;DHT22;36332;51.384;0.040;2022-12-04T07:14:07;5.90;99.90
27707;DHT22;36332;51.384;0.040;2022-12-04T07:16:35;8.90;99.90
27707;DHT22;36332;51.384;0.040;2022-12-04T07:19:09;5.80;99.90
27707;DHT22;36332;51.384;0.040;2022-12-04T07:36:26;5.90;99.90
27707;DHT22;36332;51.384;0.040;2022-12-04T07:43:53;5.90;99.90
27707;DHT22;36332;51.384;0.040;2022-12-04T07:46:24;5.90;99.90
27707;DHT22;36332;51.384;0.040;2022-12-04T07:48:57;6.00;99.90
27707;DHT22;36332;51.384;0.040;2022-12-04T07:51:27;5.80;99.90
27707;DHT22;36332;51.384;0.040;2022-12-04T07:56:31;5.90;99.90
27707;DHT22;36332;51.384;0.040;2022-12-04T08:03:58;5.90;99.90
27707;DHT22;36332;51.384;0.040;2022-12-04T08:06:28;5.90;99.90
27707;DHT22;36332;51.384;0.040;2022-12-04T08:11:26;5.90;99.90
27707;DHT22;36332;51.384;0.040;2022-12-04T08:13:56;5.90;99.90
27707;DHT22;36332;51.384;0.040;2022-12-04T08:16:27;5.90;99.90
27707;DHT22;36332;51.384;0.040;2022-12-04T08:21:26;5.90;99.90
27707;DHT22;36332;51.384;0.040;2022-12-04T08:23:57;5.90;99.90
27707;DHT22;36332;51.384;0.040;2022-12-04T08:26:26;5.90;99.90
27707;DHT22;36332;51.384;0.040;2022-12-04T08:28:56;6.00;99.90
27707;DHT22;36332;51.384;0.040;2022-12-04T08:31:26;6.00;99.90
27707;DHT22;36332;51.384;0.040;2022-12-04T08:33:56;6.00;99.90
27707;DHT22;36332;51.384;0.040;2022-12-04T08:41:23;6.00;99.90
27707;DHT22;36332;51.384;0.040;2022-12-04T08:43:53;6.00;99.90
27707;DHT22;36332;51.384;0.040;2022-12-04T08:46:24;6.00;99.90
27707;DHT22;36332;51.384;0.040;2022-12-04T08:48:53;6.10;99.90
27707;DHT22;36332;51.384;0.040;2022-12-04T08:51:29;6.10;99.90
27707;DHT22;36332;51.384;0.040;2022-12-04T08:53:58;6.10;99.90
27707;DHT22;36332;51.384;0.040;2022-12-04T08:56:27;6.00;99.90
27707;DHT22;36332;51.384;0.040;2022-12-04T09:01:25;6.10;99.90
27707;DHT22;36332;51.384;0.040;2022-12-04T09:03:54;6.10;99.90
27707;DHT22;36332;51.384;0.040;2022-12-04T09:06:22;6.10;99.90
27707;DHT22;36332;51.384;0.040;2022-12-04T09:08:52;6.10;99.90
27707;DHT22;36332;51.384;0.040;2022-12-04T09:11:23;6.00;99.90
27707;DHT22;36332;51.384;0.040;2022-12-04T09:16:21;6.10;99.90
27707;DHT22;36332;51.384;0.040;2022-12-04T09:21:20;6.00;99.90
27707;DHT22;36332;51.384;0.040;2022-12-04T09:28:50;6.10;99.90
27707;DHT22;36332;51.384;0.040;2022-12-04T09:31:22;6.20;99.90
27707;DHT22;36332;51.384;0.040;2022-12-04T09:38:49;6.20;99.90
27707;DHT22;36332;51.384;0.040;2022-12-04T09:46:41;6.30;99.90
27707;DHT22;36332;51.384;0.040;2022-12-04T09:51:58;6.30;99.90
27707;DHT22;36332;51.384;0.040;2022-12-04T09:54:31;6.30;99.90
27707;DHT22;36332;51.384;0.040;2022-12-04T09:57:09;6.30;99.90
27707;DHT22;36332;51.384;0.040;2022-12-04T10:02:25;6.80;99.90
27707;DHT22;36332;51.384;0.040;2022-12-04T10:08:02;6.20;99.90
27707;DHT22;36332;51.384;0.040;2022-12-04T10:15:54;6.40;99.90
27707;DHT22;36332;51.384;0.040;2022-12-04T10:24:54;6.50;99.90
27707;DHT22;36332;51.384;0.040;2022-12-04T10:27:10;6.60;99.90
27707;DHT22;36332;51.384;0.040;2022-12-04T10:29:41;6.60;99.90
27707;DHT22;36332;51.384;0.040;2022-12-04T10:32:17;6.60;99.90
27707;DHT22;36332;51.384;0.040;2022-12-04T10:34:49;6.60;99.90
27707;DHT22;36332;51.384;0.040;2022-12-04T10:37:19;6.70;99.90
27707;DHT22;36332;51.384;0.040;2022-12-04T10:42:57;6.70;99.90
27707;DHT22;36332;51.384;0.040;2022-12-04T10:50:23;6.70;99.90
27707;DHT22;36332;51.384;0.040;2022-12-04T10:55:33;6.70;99.90
27707;DHT22;36332;51.384;0.040;2022-12-04T10:58:01;6.80;99.90
27707;DHT22;36332;51.384;0.040;2022-12-04T11:00:34;6.70;99.90
27707;DHT22;36332;51.384;0.040;2022-12-04T11:03:08;6.80;99.90
27707;DHT22;36332;51.384;0.040;2022-12-04T11:05:45;6.80;99.90
27707;DHT22;36332;51.384;0.040;2022-12-04T11:08:22;6.80;99.90
27707;DHT22;36332;51.384;0.040;2022-12-04T11:11:00;6.90;99.90
27707;DHT22;36332;51.384;0.040;2022-12-04T11:13:28;6.80;99.90
27707;DHT22;36332;51.384;0.040;2022-12-04T11:15:57;6.90;99.90
27707;DHT22;36332;51.384;0.040;2022-12-04T11:18:34;6.90;99.90
27707;DHT22;36332;51.384;0.040;2022-12-04T11:21:12;6.90;99.90
27707;DHT22;36332;51.384;0.040;2022-12-04T11:23:43;6.90;99.90
27707;DHT22;36332;51.384;0.040;2022-12-04T11:26:12;6.90;99.90
27707;DHT22;36332;51.384;0.040;2022-12-04T11:28:52;6.90;99.90
27707;DHT22;36332;51.384;0.040;2022-12-04T11:31:21;6.90;99.90
27707;DHT22;36332;51.384;0.040;2022-12-04T11:34:16;6.90;99.90
27707;DHT22;36332;51.384;0.040;2022-12-04T11:36:42;6.90;99.90
27707;DHT22;36332;51.384;0.040;2022-12-04T11:44:39;6.90;99.90
27707;DHT22;36332;51.384;0.040;2022-12-04T11:47:17;6.90;99.90
27707;DHT22;36332;51.384;0.040;2022-12-04T11:52:40;7.00;99.90
27707;DHT22;36332;51.384;0.040;2022-12-04T11:55:18;7.00;99.90
27707;DHT22;36332;51.384;0.040;2022-12-04T12:12:52;7.00;99.90
27707;DHT22;36332;51.384;0.040;2022-12-04T12:26:21;7.10;99.90
27707;DHT22;36332;51.384;0.040;2022-12-04T12:29:09;7.20;99.90
27707;DHT22;36332;51.384;0.040;2022-12-04T12:37:27;7.20;99.90
27707;DHT22;36332;51.384;0.040;2022-12-04T12:40:04;7.10;99.90
27707;DHT22;36332;51.384;0.040;2022-12-04T12:42:56;7.20;99.90
27707;DHT22;36332;51.384;0.040;2022-12-04T12:48:36;7.20;99.90
27707;DHT22;36332;51.384;0.040;2022-12-04T12:54:27;7.10;99.90
27707;DHT22;36332;51.384;0.040;2022-12-04T12:57:12;7.10;99.90
27707;DHT22;36332;51.384;0.040;2022-12-04T12:59:48;7.10;99.90
27707;DHT22;36332;51.384;0.040;2022-12-04T13:02:29;7.10;99.90
27707;DHT22;36332;51.384;0.040;2022-12-04T13:05:09;7.10;99.90
27707;DHT22;36332;51.384;0.040;2022-12-04T13:08:15;7.10;99.90
27707;DHT22;36332;51.384;0.040;2022-12-04T13:11:10;7.10;99.90
27707;DHT22;36332;51.384;0.040;2022-12-04T13:13:45;7.10;99.90
27707;DHT22;36332;51.384;0.040;2022-12-04T13:16:24;7.10;99.90
27707;DHT22;36332;51.384;0.040;2022-12-04T13:19:14;7.10;99.90
27707;DHT22;36332;51.384;0.040;2022-12-04T13:30:15;7.10;99.90
27707;DHT22;36332;51.384;0.040;2022-12-04T13:38:35;7.10;99.90
27707;DHT22;36332;51.384;0.040;2022-12-04T13:41:09;7.00;99.90
27707;DHT22;36332;51.384;0.040;2022-12-04T13:49:07;7.10;99.90
27707;DHT22;36332;51.384;0.040;2022-12-04T13:51:40;7.10;99.90
27707;DHT22;36332;51.384;0.040;2022-12-04T13:56:44;7.10;99.90
27707;DHT22;36332;51.384;0.040;2022-12-04T13:59:35;7.10;99.90
27707;DHT22;36332;51.384;0.040;2022-12-04T14:02:30;7.00;99.90
27707;DHT22;36332;51.384;0.040;2022-12-04T14:05:05;7.00;99.90
27707;DHT22;36332;51.384;0.040;2022-12-04T14:07:36;7.00;99.90
27707;DHT22;36332;51.384;0.040;2022-12-04T14:12:39;7.00;99.90
27707;DHT22;36332;51.384;0.040;2022-12-04T14:15:21;7.00;99.90
27707;DHT22;36332;51.384;0.040;2022-12-04T14:20:35;7.10;99.90
27707;DHT22;36332;51.384;0.040;2022-12-04T14:23:25;6.90;99.90
27707;DHT22;36332;51.384;0.040;2022-12-04T14:25:54;7.00;99.90
27707;DHT22;36332;51.384;0.040;2022-12-04T14:33:47;6.90;99.90
27707;DHT22;36332;51.384;0.040;2022-12-04T14:36:33;6.90;99.90
27707;DHT22;36332;51.384;0.040;2022-12-04T14:39:10;6.90;99.90
27707;DHT22;36332;51.384;0.040;2022-12-04T14:44:26;6.90;99.90
27707;DHT22;36332;51.384;0.040;2022-12-04T14:58:25;6.80;99.90
27707;DHT22;36332;51.384;0.040;2022-12-04T15:03:55;6.80;99.90
27707;DHT22;36332;51.384;0.040;2022-12-04T15:06:29;6.80;99.90
27707;DHT22;36332;51.384;0.040;2022-12-04T15:09:00;6.80;99.90
27707;DHT22;36332;51.384;0.040;2022-12-04T15:11:51;6.80;99.90
27707;DHT22;36332;51.384;0.040;2022-12-04T15:14:42;6.70;99.90
27707;DHT22;36332;51.384;0.040;2022-12-04T15:17:12;6.70;99.90
27707;DHT22;36332;51.384;0.040;2022-12-04T15:22:27;6.60;99.90
27707;DHT22;36332;51.384;0.040;2022-12-04T15:27:24;6.70;99.90
27707;DHT22;36332;51.384;0.040;2022-12-04T15:30:00;6.60;99.90
27707;DHT22;36332;51.384;0.040;2022-12-04T15:32:30;6.70;99.90
27707;DHT22;36332;51.384;0.040;2022-12-04T15:35:05;6.60;99.90
27707;DHT22;36332;51.384;0.040;2022-12-04T15:37:36;6.60;99.90
27707;DHT22;36332;51.384;0.040;2022-12-04T15:40:06;6.60;99.90
27707;DHT22;36332;51.384;0.040;2022-12-04T15:45:22;6.60;99.90
27707;DHT22;36332;51.384;0.040;2022-12-04T15:47:52;6.60;99.90
27707;DHT22;36332;51.384;0.040;2022-12-04T15:50:22;6.60;99.90
27707;DHT22;36332;51.384;0.040;2022-12-04T15:55:28;6.60;99.90
27707;DHT22;36332;51.384;0.040;2022-12-04T15:58:15;6.50;99.90
27707;DHT22;36332;51.384;0.040;2022-12-04T16:03:30;6.50;99.90
27707;DHT22;36332;51.384;0.040;2022-12-04T16:06:23;6.50;99.90
27707;DHT22;36332;51.384;0.040;2022-12-04T16:09:13;6.50;99.90
27707;DHT22;36332;51.384;0.040;2022-12-04T16:14:16;6.40;99.90
27707;DHT22;36332;51.384;0.040;2022-12-04T16:16:49;6.40;99.90
27707;DHT22;36332;51.384;0.040;2022-12-04T16:26:52;6.40;99.90
27707;DHT22;36332;51.384;0.040;2022-12-04T16:29:22;6.40;99.90
27707;DHT22;36332;51.384;0.040;2022-12-04T16:31:50;6.30;99.90
27707;DHT22;36332;51.384;0.040;2022-12-04T16:44:14;6.20;99.90
27707;DHT22;36332;51.384;0.040;2022-12-04T16:46:42;6.20;99.90
27707;DHT22;36332;51.384;0.040;2022-12-04T16:49:12;6.10;99.90
27707;DHT22;36332;51.384;0.040;2022-12-04T16:51:46;6.20;99.90
27707;DHT22;36332;51.384;0.040;2022-12-04T16:56:45;6.10;99.90
27707;DHT22;36332;51.384;0.040;2022-12-04T16:59:13;6.00;99.90
27707;DHT22;36332;51.384;0.040;2022-12-04T17:01:47;6.00;99.90
27707;DHT22;36332;51.384;0.040;2022-12-04T17:06:44;6.00;99.90
27707;DHT22;36332;51.384;0.040;2022-12-04T17:09:13;6.00;99.90
27707;DHT22;36332;51.384;0.040;2022-12-04T17:11:41;6.00;99.90
27707;DHT22;36332;51.384;0.040;2022-12-04T17:16:42;5.90;99.90
27707;DHT22;36332;51.384;0.040;2022-12-04T17:33:59;5.80;99.90
27707;DHT22;36332;51.384;0.040;2022-12-04T17:38:58;5.70;99.90
27707;DHT22;36332;51.384;0.040;2022-12-04T17:43:58;5.80;99.90
27707;DHT22;36332;51.384;0.040;2022-12-04T17:48:55;5.80;99.90
27707;DHT22;36332;51.384;0.040;2022-12-04T17:51:24;5.80;99.90
27707;DHT22;36332;51.384;0.040;2022-12-04T17:56:23;5.80;99.90
27707;DHT22;36332;51.384;0.040;2022-12-04T17:58:52;5.70;99.90
27707;DHT22;36332;51.384;0.040;2022-12-04T18:01:24;5.80;99.90
27707;DHT22;36332;51.384;0.040;2022-12-04T18:03:54;5.70;99.90
27707;DHT22;36332;51.384;0.040;2022-12-04T18:08:55;5.80;99.90
27707;DHT22;36332;51.384;0.040;2022-12-04T18:11:25;5.80;99.90
27707;DHT22;36332;51.384;0.040;2022-12-04T18:13:57;5.70;99.90
27707;DHT22;36332;51.384;0.040;2022-12-04T18:16:26;5.70;99.90
27707;DHT22;36332;51.384;0.040;2022-12-04T18:18:55;5.70;99.90
27707;DHT22;36332;51.384;0.040;2022-12-04T18:23:55;5.70;99.90
27707;DHT22;36332;51.384;0.040;2022-12-04T18:26:26;5.70;99.90
27707;DHT22;36332;51.384;0.040;2022-12-04T18:28:54;5.70;99.90
27707;DHT22;36332;51.384;0.040;2022-12-04T18:31:22;5.70;99.90
27707;DHT22;36332;51.384;0.040;2022-12-04T18:36:22;5.60;99.90
27707;DHT22;36332;51.384;0.040;2022-12-04T18:38:59;5.70;99.90
27707;DHT22;36332;51.384;0.040;2022-12-04T18:41:28;4.10;99.90
27707;DHT22;36332;51.384;0.040;2022-12-04T18:43:56;5.60;99.90
27707;DHT22;36332;51.384;0.040;2022-12-04T18:48:54;5.60;99.90
27707;DHT22;36332;51.384;0.040;2022-12-04T18:53:58;5.60;99.90
27707;DHT22;36332;51.384;0.040;2022-12-04T18:56:28;5.60;99.90
27707;DHT22;36332;51.384;0.040;2022-12-04T18:58:58;5.60;99.90
27707;DHT22;36332;51.384;0.040;2022-12-04T19:01:27;4.90;99.90
27707;DHT22;36332;51.384;0.040;2022-12-04T19:03:57;5.60;99.90
27707;DHT22;36332;51.384;0.040;2022-12-04T19:06:32;5.60;99.90
27707;DHT22;36332;51.384;0.040;2022-12-04T19:09:04;5.60;99.90
27707;DHT22;36332;51.384;0.040;2022-12-04T19:11:33;5.60;99.90
27707;DHT22;36332;51.384;0.040;2022-12-04T19:26:32;5.60;99.90
27707;DHT22;36332;51.384;0.040;2022-12-04T19:29:01;5.60;99.90
27707;DHT22;36332;51.384;0.040;2022-12-04T19:31:32;5.60;99.90
27707;DHT22;36332;51.384;0.040;2022-12-04T19:36:30;5.60;99.90
27707;DHT22;36332;51.384;0.040;2022-12-04T19:39:00;5.60;99.90
27707;DHT22;36332;51.384;0.040;2022-12-04T19:41:29;5.60;99.90
27707;DHT22;36332;51.384;0.040;2022-12-04T19:43:59;5.60;99.90
27707;DHT22;36332;51.384;0.040;2022-12-04T19:46:28;5.60;99.90
27707;DHT22;36332;51.384;0.040;2022-12-04T19:48:59;5.60;99.90
27707;DHT22;36332;51.384;0.040;2022-12-04T19:51:30;5.60;99.90
27707;DHT22;36332;51.384;0.040;2022-12-04T19:54:00;5.60;99.90
27707;DHT22;36332;51.384;0.040;2022-12-04T19:56:31;5.60;99.90
27707;DHT22;36332;51.384;0.040;2022-12-04T19:59:03;5.60;99.90
27707;DHT22;36332;51.384;0.040;2022-12-04T20:01:33;5.60;99.90
27707;DHT22;36332;51.384;0.040;2022-12-04T20:04:03;5.60;99.90
27707;DHT22;36332;51.384;0.040;2022-12-04T20:06:42;5.60;99.90
27707;DHT22;36332;51.384;0.040;2022-12-04T20:09:22;5.60;99.90
27707;DHT22;36332;51.384;0.040;2022-12-04T20:19:17;5.60;99.90
27707;DHT22;36332;51.384;0.040;2022-12-04T20:24:15;5.50;99.90
27707;DHT22;36332;51.384;0.040;2022-12-04T20:26:44;5.50;99.90
27707;DHT22;36332;51.384;0.040;2022-12-04T20:29:14;5.40;99.90
27707;DHT22;36332;51.384;0.040;2022-12-04T20:31:44;5.40;99.90
27707;DHT22;36332;51.384;0.040;2022-12-04T20:34:15;5.50;99.90
27707;DHT22;36332;51.384;0.040;2022-12-04T20:36:44;5.30;99.90
27707;DHT22;36332;51.384;0.040;2022-12-04T20:39:13;5.40;99.90
27707;DHT22;36332;51.384;0.040;2022-12-04T20:41:42;5.40;99.90
27707;DHT22;36332;51.384;0.040;2022-12-04T20:44:12;5.40;99.90
27707;DHT22;36332;51.384;0.040;2022-12-04T20:46:41;5.40;99.90
27707;DHT22;36332;51.384;0.040;2022-12-04T20:49:12;5.30;99.90
27707;DHT22;36332;51.384;0.040;2022-12-04T20:51:48;5.30;99.90
27707;DHT22;36332;51.384;0.040;2022-12-04T20:54:19;5.30;99.90
27707;DHT22;36332;51.384;0.040;2022-12-04T20:59:17;5.40;99.90
27707;DHT22;36332;51.384;0.040;2022-12-04T21:01:46;5.30;99.90
27707;DHT22;36332;51.384;0.040;2022-12-04T21:04:16;5.30;99.90
27707;DHT22;36332;51.384;0.040;2022-12-04T21:06:45;5.30;99.90
27707;DHT22;36332;51.384;0.040;2022-12-04T21:09:19;5.30;99.90
27707;DHT22;36332;51.384;0.040;2022-12-04T21:11:50;5.30;99.90
27707;DHT22;36332;51.384;0.040;2022-12-04T21:14:24;5.30;99.90
27707;DHT22;36332;51.384;0.040;2022-12-04T21:17:12;5.10;99.90
27707;DHT22;36332;51.384;0.040;2022-12-04T21:19:46;5.30;99.90
27707;DHT22;36332;51.384;0.040;2022-12-04T21:22:16;5.30;99.90
27707;DHT22;36332;51.384;0.040;2022-12-04T21:27:12;5.30;99.90
27707;DHT22;36332;51.384;0.040;2022-12-04T21:29:48;5.30;99.90
27707;DHT22;36332;51.384;0.040;2022-12-04T21:32:17;5.30;99.90
27707;DHT22;36332;51.384;0.040;2022-12-04T21:37:14;5.30;99.90
27707;DHT22;36332;51.384;0.040;2022-12-04T21:44:58;5.30;99.90
27707;DHT22;36332;51.384;0.040;2022-12-04T21:47:27;5.30;99.90
27707;DHT22;36332;51.384;0.040;2022-12-04T21:52:23;5.40;99.90
27707;DHT22;36332;51.384;0.040;2022-12-04T21:54:52;5.30;99.90
27707;DHT22;36332;51.384;0.040;2022-12-04T21:57:20;5.30;99.90
27707;DHT22;36332;51.384;0.040;2022-12-04T21:59:51;5.30;99.90
27707;DHT22;36332;51.384;0.040;2022-12-04T22:02:19;5.30;99.90
27707;DHT22;36332;51.384;0.040;2022-12-04T22:09:44;5.30;99.90
27707;DHT22;36332;51.384;0.040;2022-12-04T22:17:30;5.30;99.90
27707;DHT22;36332;51.384;0.040;2022-12-04T22:34:47;5.30;99.90
27707;DHT22;36332;51.384;0.040;2022-12-04T22:44:39;5.30;99.90
27707;DHT22;36332;51.384;0.040;2022-12-04T23:06:51;5.40;99.90
27707;DHT22;36332;51.384;0.040;2022-12-04T23:11:50;5.50;99.90
27707;DHT22;36332;51.384;0.040;2022-12-04T23:14:18;5.50;99.90
27707;DHT22;36332;51.384;0.040;2022-12-04T23:16:47;5.40;99.90
27707;DHT22;36332;51.384;0.040;2022-12-04T23:19:17;5.30;99.90
27707;DHT22;36332;51.384;0.040;2022-12-04T23:21:46;5.40;99.90
27707;DHT22;36332;51.384;0.040;2022-12-04T23:24:23;5.40;99.90
27707;DHT22;36332;51.384;0.040;2022-12-04T23:41:59;5.30;99.90
